createdAt,value
2023-05-06T00:00:08.851Z,12.40
2023-05-06T00:02:37.156Z,12.50
2023-05-06T00:05:08.307Z,12.40
2023-05-06T00:07:36.775Z,12.50
2023-05-06T00:10:06.580Z,12.40
2023-05-06T00:12:34.820Z,12.40
2023-05-06T00:15:03.174Z,12.50
2023-05-06T00:17:31.476Z,12.50
2023-05-06T00:19:59.718Z,12.40
2023-05-06T00:22:29.376Z,12.40
2023-05-06T00:24:57.543Z,12.30
2023-05-06T00:27:25.836Z,12.30
2023-05-06T00:29:54.135Z,12.40
2023-05-06T00:32:22.370Z,12.30
2023-05-06T00:34:50.538Z,12.20
2023-05-06T00:37:18.817Z,12.30
2023-05-06T00:39:48.427Z,12.20
2023-05-06T00:42:16.631Z,12.10
2023-05-06T00:44:46.111Z,12.00
2023-05-06T00:47:14.730Z,12.00
2023-05-06T00:49:43.602Z,11.90
2023-05-06T00:52:11.890Z,11.90
2023-05-06T00:54:40.430Z,11.80
2023-05-06T00:57:10.279Z,11.80
2023-05-06T00:59:39.146Z,11.60
2023-05-06T01:02:07.723Z,11.70
2023-05-06T01:04:36.517Z,11.60
2023-05-06T01:07:17.674Z,11.60
2023-05-06T01:09:56.938Z,11.60
2023-05-06T01:12:33.302Z,11.40
2023-05-06T01:15:10.865Z,11.40
2023-05-06T01:17:46.239Z,11.30
2023-05-06T01:20:15.351Z,11.30
2023-05-06T01:22:44.136Z,11.20
2023-05-06T01:25:21.650Z,11.20
2023-05-06T01:27:50.231Z,11.10
2023-05-06T01:30:22.904Z,11.10
2023-05-06T01:33:12.835Z,10.90
2023-05-06T01:35:56.735Z,10.80
2023-05-06T01:38:36.512Z,10.80
2023-05-06T01:41:06.809Z,10.60
2023-05-06T01:43:42.646Z,10.50
2023-05-06T01:46:18.482Z,10.40
2023-05-06T01:48:50.230Z,10.30
2023-05-06T01:51:18.501Z,10.20
2023-05-06T01:53:46.653Z,10.20
2023-05-06T01:56:16.408Z,10.00
2023-05-06T01:58:44.599Z,9.90
2023-05-06T02:01:12.866Z,9.90
2023-05-06T02:03:41.322Z,9.70
2023-05-06T02:06:09.594Z,9.70
2023-05-06T02:08:38.259Z,9.80
2023-05-06T02:11:06.458Z,9.70
2023-05-06T02:13:35.967Z,9.70
2023-05-06T02:16:04.196Z,9.70
2023-05-06T02:18:32.419Z,9.60
2023-05-06T02:21:01.004Z,9.50
2023-05-06T02:23:29.225Z,9.50
2023-05-06T02:25:58.075Z,9.50
2023-05-06T02:28:26.437Z,9.40
2023-05-06T02:30:58.739Z,9.40
2023-05-06T02:33:27.052Z,9.40
2023-05-06T02:35:55.262Z,9.50
2023-05-06T02:38:25.700Z,9.50
2023-05-06T02:40:53.925Z,9.40
2023-05-06T02:43:23.088Z,9.50
2023-05-06T02:45:51.476Z,9.50
2023-05-06T02:48:21.070Z,9.50
2023-05-06T02:50:49.289Z,9.50
2023-05-06T02:53:17.480Z,9.50
2023-05-06T02:55:45.650Z,9.50
2023-05-06T02:58:13.968Z,9.40
2023-05-06T03:00:42.836Z,9.50
2023-05-06T03:03:11.159Z,9.40
2023-05-06T03:05:40.699Z,9.40
2023-05-06T03:08:08.957Z,9.30
2023-05-06T03:10:37.206Z,9.30
2023-05-06T03:13:05.621Z,9.30
2023-05-06T03:15:33.884Z,9.20
2023-05-06T03:18:02.168Z,9.30
2023-05-06T03:20:30.569Z,9.30
2023-05-06T03:23:00.208Z,9.30
2023-05-06T03:25:28.369Z,9.20
2023-05-06T03:27:56.558Z,9.20
2023-05-06T03:30:24.838Z,9.20
2023-05-06T03:32:53.098Z,9.20
2023-05-06T03:35:21.643Z,9.30
2023-05-06T03:37:49.870Z,9.20
2023-05-06T03:40:19.621Z,9.20
2023-05-06T03:42:48.054Z,9.10
2023-05-06T03:45:16.339Z,9.00
2023-05-06T03:47:44.552Z,9.10
2023-05-06T03:50:12.858Z,9.00
2023-05-06T03:52:41.393Z,8.90
2023-05-06T03:55:11.346Z,8.90
2023-05-06T03:57:41.156Z,8.90
2023-05-06T04:00:12.146Z,8.90
2023-05-06T04:02:42.567Z,8.90
2023-05-06T04:05:11.439Z,8.80
2023-05-06T04:07:40.171Z,8.80
2023-05-06T04:10:10.337Z,8.80
2023-05-06T04:12:39.935Z,8.90
2023-05-06T04:15:10.455Z,8.90
2023-05-06T04:17:38.917Z,8.80
2023-05-06T04:20:11.357Z,8.80
2023-05-06T04:22:39.734Z,8.80
2023-05-06T04:25:10.002Z,8.70
2023-05-06T04:27:38.264Z,8.80
2023-05-06T04:30:10.143Z,8.70
2023-05-06T04:32:38.866Z,8.70
2023-05-06T04:35:09.225Z,8.70
2023-05-06T04:37:37.620Z,8.70
2023-05-06T04:40:07.237Z,8.90
2023-05-06T04:42:35.504Z,8.70
2023-05-06T04:45:03.779Z,8.60
2023-05-06T04:47:33.463Z,8.70
2023-05-06T04:50:01.794Z,8.60
2023-05-06T04:52:30.497Z,8.70
2023-05-06T04:54:58.697Z,8.70
2023-05-06T04:57:26.877Z,8.70
2023-05-06T04:59:55.073Z,8.90
2023-05-06T05:02:23.393Z,8.90
2023-05-06T05:04:53.177Z,9.00
2023-05-06T05:07:21.369Z,9.00
2023-05-06T05:09:49.691Z,8.80
2023-05-06T05:12:17.964Z,8.90
2023-05-06T05:14:47.246Z,9.00
2023-05-06T05:17:15.494Z,9.00
2023-05-06T05:19:44.298Z,9.00
2023-05-06T05:22:14.145Z,8.80
2023-05-06T05:24:42.548Z,8.80
2023-05-06T05:27:12.008Z,8.90
2023-05-06T05:29:40.298Z,8.90
2023-05-06T05:32:08.563Z,8.90
2023-05-06T05:34:36.788Z,9.00
2023-05-06T05:37:04.966Z,8.90
2023-05-06T05:39:34.661Z,8.90
2023-05-06T05:42:03.687Z,8.90
2023-05-06T05:44:31.990Z,8.80
2023-05-06T05:47:00.173Z,8.80
2023-05-06T05:49:28.418Z,8.90
2023-05-06T05:51:57.365Z,8.90
2023-05-06T05:54:25.804Z,8.90
2023-05-06T05:56:55.633Z,8.90
2023-05-06T05:59:23.913Z,9.00
2023-05-06T06:01:52.444Z,9.00
2023-05-06T06:04:21.229Z,9.00
2023-05-06T06:06:49.664Z,8.90
2023-05-06T06:09:18.204Z,8.90
2023-05-06T06:11:46.684Z,8.90
2023-05-06T06:14:16.795Z,8.90
2023-05-06T06:16:45.432Z,9.00
2023-05-06T06:19:15.542Z,9.00
2023-05-06T06:21:44.056Z,9.00
2023-05-06T06:24:12.719Z,9.00
2023-05-06T06:26:41.187Z,9.00
2023-05-06T06:29:09.589Z,9.00
2023-05-06T06:31:40.652Z,9.00
2023-05-06T06:34:10.121Z,8.90
2023-05-06T06:36:40.245Z,8.90
2023-05-06T06:39:08.626Z,8.90
2023-05-06T06:41:36.936Z,8.90
2023-05-06T06:44:05.653Z,8.90
2023-05-06T06:46:34.055Z,9.00
2023-05-06T06:49:03.789Z,8.90
2023-05-06T06:51:32.522Z,8.90
2023-05-06T06:54:01.553Z,8.90
2023-05-06T06:56:29.985Z,8.70
2023-05-06T06:58:58.507Z,8.90
2023-05-06T07:01:26.967Z,9.00
2023-05-06T07:03:55.361Z,8.90
2023-05-06T07:06:25.240Z,9.00
2023-05-06T07:08:53.655Z,9.00
2023-05-06T07:11:22.017Z,9.00
2023-05-06T07:13:50.510Z,9.00
2023-05-06T07:16:19.036Z,9.00
2023-05-06T07:18:47.947Z,9.00
2023-05-06T07:21:16.361Z,8.80
2023-05-06T07:23:46.090Z,8.90
2023-05-06T07:26:14.402Z,8.90
2023-05-06T07:28:42.731Z,9.00
2023-05-06T07:31:11.012Z,9.10
2023-05-06T07:33:39.253Z,9.10
2023-05-06T07:36:08.317Z,9.10
2023-05-06T07:38:36.550Z,9.10
2023-05-06T07:41:06.252Z,9.10
2023-05-06T07:43:34.885Z,9.00
2023-05-06T07:46:03.519Z,9.00
2023-05-06T07:48:32.677Z,8.90
2023-05-06T07:51:01.851Z,8.90
2023-05-06T07:53:30.282Z,8.80
2023-05-06T07:56:02.282Z,8.80
2023-05-06T07:58:32.692Z,8.70
2023-05-06T08:01:01.343Z,8.90
2023-05-06T08:03:29.848Z,8.90
2023-05-06T08:05:58.417Z,8.90
2023-05-06T08:08:27.825Z,8.90
2023-05-06T08:10:56.483Z,9.00
2023-05-06T08:13:25.293Z,9.10
2023-05-06T08:15:55.363Z,9.00
2023-05-06T08:18:23.732Z,8.80
2023-05-06T08:20:52.412Z,8.90
2023-05-06T08:23:21.358Z,9.00
2023-05-06T08:25:49.699Z,9.00
2023-05-06T08:28:18.002Z,9.00
2023-05-06T08:30:48.403Z,9.00
2023-05-06T08:33:18.585Z,8.90
2023-05-06T08:35:48.551Z,9.00
2023-05-06T08:38:16.911Z,9.00
2023-05-06T08:40:46.155Z,9.00
2023-05-06T08:43:16.294Z,9.20
2023-05-06T08:45:45.838Z,9.20
2023-05-06T08:48:14.507Z,9.10
2023-05-06T08:50:45.386Z,9.20
2023-05-06T08:53:14.520Z,9.20
2023-05-06T08:55:44.492Z,9.20
2023-05-06T08:58:17.420Z,9.10
2023-05-06T09:00:47.383Z,9.20
2023-05-06T09:03:15.972Z,9.20
2023-05-06T09:05:45.716Z,9.20
2023-05-06T09:08:14.864Z,9.30
2023-05-06T09:10:46.213Z,9.40
2023-05-06T09:13:16.088Z,9.60
2023-05-06T09:15:47.259Z,9.50
2023-05-06T09:18:17.178Z,9.60
2023-05-06T09:20:49.348Z,9.70
2023-05-06T09:23:19.263Z,9.80
2023-05-06T09:25:49.683Z,9.90
2023-05-06T09:28:18.056Z,9.80
2023-05-06T09:30:47.626Z,9.90
2023-05-06T09:33:16.445Z,9.80
2023-05-06T09:35:46.544Z,9.80
2023-05-06T09:38:15.032Z,9.90
2023-05-06T09:40:43.260Z,9.80
2023-05-06T09:43:12.783Z,9.80
2023-05-06T09:45:41.741Z,9.80
2023-05-06T09:48:10.369Z,9.80
2023-05-06T09:50:38.790Z,9.80
2023-05-06T09:53:09.725Z,9.80
2023-05-06T09:55:40.842Z,9.80
2023-05-06T09:58:10.781Z,9.70
2023-05-06T10:00:39.593Z,9.70
2023-05-06T10:03:08.963Z,9.80
2023-05-06T10:05:39.028Z,9.70
2023-05-06T10:08:10.576Z,9.90
2023-05-06T10:10:42.863Z,9.90
2023-05-06T10:13:11.925Z,9.80
2023-05-06T10:15:41.313Z,9.90
2023-05-06T10:18:11.042Z,9.90
2023-05-06T10:20:43.224Z,9.90
2023-05-06T10:23:24.635Z,9.90
2023-05-06T10:25:58.078Z,9.90
2023-05-06T10:28:31.599Z,10.00
2023-05-06T10:31:01.564Z,10.00
2023-05-06T10:33:30.757Z,9.90
2023-05-06T10:36:15.911Z,9.90
2023-05-06T10:38:49.865Z,9.90
2023-05-06T10:41:21.209Z,10.00
2023-05-06T10:43:56.430Z,9.90
2023-05-06T10:46:26.135Z,9.90
2023-05-06T10:49:20.821Z,9.80
2023-05-06T10:51:49.983Z,10.00
2023-05-06T10:54:26.137Z,10.00
2023-05-06T10:57:10.804Z,10.00
2023-05-06T10:59:47.719Z,10.00
2023-05-06T11:02:21.588Z,10.10
2023-05-06T11:05:00.721Z,10.10
2023-05-06T11:07:29.042Z,10.10
2023-05-06T11:10:01.870Z,10.10
2023-05-06T11:12:50.898Z,10.10
2023-05-06T11:15:28.066Z,9.90
2023-05-06T11:17:57.889Z,9.80
2023-05-06T11:20:27.547Z,9.80
2023-05-06T11:22:56.250Z,9.90
2023-05-06T11:25:47.244Z,9.70
2023-05-06T11:28:17.030Z,9.70
2023-05-06T11:30:56.388Z,9.80
2023-05-06T11:33:28.790Z,9.70
2023-05-06T11:35:57.087Z,9.80
2023-05-06T11:39:05.207Z,9.80
2023-05-06T11:41:35.617Z,9.70
2023-05-06T11:44:04.132Z,9.70
2023-05-06T11:46:35.364Z,9.60
2023-05-06T11:49:03.601Z,9.40
2023-05-06T11:51:32.539Z,9.50
2023-05-06T11:54:09.500Z,9.50
2023-05-06T11:56:51.328Z,9.60
2023-05-06T11:59:28.454Z,9.50
2023-05-06T12:02:00.219Z,9.50
2023-05-06T12:04:29.761Z,9.40
2023-05-06T12:06:58.036Z,9.40
2023-05-06T12:09:26.915Z,9.30
2023-05-06T12:11:56.845Z,9.20
2023-05-06T12:14:26.512Z,9.10
2023-05-06T12:16:56.128Z,8.60
2023-05-06T12:19:25.520Z,9.20
2023-05-06T12:21:53.907Z,9.10
2023-05-06T12:24:30.344Z,9.20
2023-05-06T12:27:02.925Z,9.30
2023-05-06T12:29:32.488Z,9.40
2023-05-06T12:32:11.873Z,9.40
2023-05-06T12:34:41.879Z,9.30
2023-05-06T12:37:10.473Z,9.30
2023-05-06T12:39:41.669Z,9.40
2023-05-06T12:42:11.476Z,9.50
2023-05-06T12:44:41.406Z,9.50
2023-05-06T12:47:19.466Z,9.50
2023-05-06T12:49:50.116Z,9.50
2023-05-06T12:52:19.910Z,9.40
2023-05-06T12:54:49.054Z,9.40
2023-05-06T12:57:19.664Z,9.40
2023-05-06T12:59:48.689Z,9.30
2023-05-06T13:02:17.678Z,9.30
2023-05-06T13:04:47.151Z,9.30
2023-05-06T13:07:15.608Z,9.40
2023-05-06T13:09:44.690Z,9.40
2023-05-06T13:12:13.383Z,9.40
2023-05-06T13:14:43.356Z,9.40
2023-05-06T13:17:11.974Z,9.30
2023-05-06T13:19:40.457Z,9.30
2023-05-06T13:22:09.061Z,9.40
2023-05-06T13:24:37.940Z,9.30
2023-05-06T13:27:07.116Z,9.50
2023-05-06T13:29:35.826Z,9.60
2023-05-06T13:32:08.783Z,9.50
2023-05-06T13:34:37.660Z,9.40
2023-05-06T13:37:06.230Z,9.40
2023-05-06T13:39:34.775Z,9.30
2023-05-06T13:42:06.733Z,9.50
2023-05-06T13:44:36.622Z,9.60
2023-05-06T13:47:06.511Z,9.70
2023-05-06T13:49:35.172Z,9.70
2023-05-06T13:52:05.175Z,9.60
2023-05-06T13:54:34.937Z,9.50
2023-05-06T13:57:03.351Z,9.50
2023-05-06T13:59:31.730Z,9.40
2023-05-06T14:02:01.131Z,9.30
2023-05-06T14:04:31.079Z,9.40
2023-05-06T14:06:59.612Z,9.20
2023-05-06T14:09:28.059Z,9.40
2023-05-06T14:11:56.450Z,9.40
2023-05-06T14:14:25.449Z,9.50
2023-05-06T14:16:55.559Z,9.60
2023-05-06T14:19:24.193Z,9.60
2023-05-06T14:21:55.739Z,9.50
2023-05-06T14:24:24.215Z,9.50
2023-05-06T14:26:53.814Z,9.50
2023-05-06T14:29:22.354Z,9.60
2023-05-06T14:31:50.769Z,9.50
2023-05-06T14:34:19.163Z,9.50
2023-05-06T14:36:47.553Z,9.50
2023-05-06T14:39:17.385Z,9.60
2023-05-06T14:41:45.998Z,9.70
2023-05-06T14:44:14.441Z,9.80
2023-05-06T14:46:42.890Z,9.60
2023-05-06T14:49:11.758Z,9.70
2023-05-06T14:51:40.586Z,9.80
2023-05-06T14:54:09.272Z,9.70
2023-05-06T14:56:39.342Z,9.70
2023-05-06T14:59:08.626Z,9.50
2023-05-06T15:01:37.151Z,9.50
2023-05-06T15:04:05.907Z,9.40
2023-05-06T15:06:34.078Z,9.40
2023-05-06T15:09:04.012Z,9.50
2023-05-06T15:11:33.100Z,9.60
2023-05-06T15:14:02.649Z,9.50
2023-05-06T15:16:30.897Z,9.60
2023-05-06T15:18:59.086Z,9.50
2023-05-06T15:21:27.548Z,9.50
2023-05-06T15:23:56.832Z,9.40
2023-05-06T15:26:25.025Z,9.40
2023-05-06T15:28:53.210Z,9.40
2023-05-06T15:31:22.842Z,9.40
2023-05-06T15:33:51.286Z,9.40
2023-05-06T15:36:19.437Z,9.30
2023-05-06T15:39:01.562Z,9.40
2023-05-06T15:41:32.557Z,9.20
2023-05-06T15:44:03.773Z,9.20
2023-05-06T15:46:34.104Z,9.40
2023-05-06T15:49:31.985Z,9.40
2023-05-06T15:51:50.685Z,9.30
2023-05-06T15:54:19.281Z,9.30
2023-05-06T15:56:47.762Z,9.30
2023-05-06T15:59:16.145Z,9.20
2023-05-06T16:04:17.297Z,9.30
2023-05-06T16:06:45.640Z,9.20
2023-05-06T16:09:13.912Z,9.20
2023-05-06T16:11:42.329Z,9.20
2023-05-06T16:14:10.578Z,9.20
2023-05-06T16:16:39.066Z,9.10
2023-05-06T16:19:08.970Z,9.10
2023-05-06T16:21:37.452Z,9.20
2023-05-06T16:24:06.229Z,9.00
2023-05-06T16:26:34.442Z,9.10
2023-05-06T16:29:02.713Z,9.00
2023-05-06T16:31:31.541Z,9.00
2023-05-06T16:33:59.865Z,9.00
2023-05-06T16:36:29.908Z,9.20
2023-05-06T16:38:58.103Z,9.30
2023-05-06T16:41:26.432Z,9.20
2023-05-06T16:43:54.958Z,9.20
2023-05-06T16:46:24.357Z,9.10
2023-05-06T16:48:54.123Z,9.10
2023-05-06T16:51:22.672Z,9.20
2023-05-06T16:53:52.832Z,9.20
2023-05-06T16:56:21.280Z,9.10
2023-05-06T16:58:49.533Z,8.80
2023-05-06T17:01:18.042Z,9.10
2023-05-06T17:03:46.366Z,9.20
2023-05-06T17:06:14.978Z,9.30
2023-05-06T17:08:43.847Z,9.20
2023-05-06T17:11:13.500Z,9.10
2023-05-06T17:13:41.767Z,9.10
2023-05-06T17:16:10.332Z,9.20
2023-05-06T17:18:38.691Z,9.20
2023-05-06T17:21:09.344Z,9.20
2023-05-06T17:23:37.792Z,9.00
2023-05-06T17:26:10.082Z,9.10
2023-05-06T17:28:40.284Z,9.00
2023-05-06T17:31:09.833Z,9.00
2023-05-06T17:33:38.071Z,9.10
2023-05-06T17:36:07.214Z,9.10
2023-05-06T17:38:35.613Z,9.00
2023-05-06T17:41:03.986Z,8.90
2023-05-06T17:43:33.576Z,9.00
2023-05-06T17:46:03.411Z,8.90
2023-05-06T17:48:34.064Z,8.90
2023-05-06T17:51:02.890Z,8.80
2023-05-06T17:53:32.819Z,8.80
2023-05-06T17:56:01.027Z,8.80
2023-05-06T17:58:29.310Z,8.90
2023-05-06T18:00:58.268Z,8.90
2023-05-06T18:03:28.121Z,8.80
2023-05-06T18:05:56.425Z,8.90
2023-05-06T18:08:24.716Z,8.90
2023-05-06T18:10:53.110Z,8.80
2023-05-06T18:13:21.597Z,8.70
2023-05-06T18:15:50.225Z,8.90
2023-05-06T18:18:18.666Z,8.90
2023-05-06T18:20:48.416Z,8.90
2023-05-06T18:23:16.786Z,9.00
2023-05-06T18:25:45.414Z,9.00
2023-05-06T18:28:14.025Z,8.80
2023-05-06T18:30:42.338Z,8.80
2023-05-06T18:33:10.873Z,8.80
2023-05-06T18:35:39.245Z,8.90
2023-05-06T18:38:10.661Z,9.00
2023-05-06T18:40:39.793Z,9.00
2023-05-06T18:43:08.129Z,9.00
2023-05-06T18:45:36.401Z,8.90
2023-05-06T18:48:05.290Z,9.30
2023-05-06T18:50:33.513Z,8.90
2023-05-06T18:53:01.655Z,8.90
2023-05-06T18:55:31.562Z,8.90
2023-05-06T18:57:59.891Z,8.90
2023-05-06T19:00:28.909Z,8.90
2023-05-06T19:02:57.052Z,8.90
2023-05-06T19:05:25.266Z,8.90
2023-05-06T19:07:53.562Z,8.80
2023-05-06T19:10:22.086Z,8.90
2023-05-06T19:12:51.849Z,8.70
2023-05-06T19:15:20.278Z,8.70
2023-05-06T19:17:48.563Z,8.70
2023-05-06T19:20:17.175Z,8.80
2023-05-06T19:22:45.721Z,8.70
2023-05-06T19:25:14.108Z,8.80
2023-05-06T19:27:42.529Z,8.90
2023-05-06T19:30:12.967Z,8.90
2023-05-06T19:32:41.268Z,8.90
2023-05-06T19:35:11.113Z,8.80
2023-05-06T19:37:39.653Z,8.90
2023-05-06T19:40:09.321Z,8.80
2023-05-06T19:42:37.496Z,8.80
2023-05-06T19:45:09.057Z,8.90
2023-05-06T19:47:39.204Z,8.80
2023-05-06T19:50:09.257Z,8.90
2023-05-06T19:52:37.639Z,8.80
2023-05-06T19:55:07.173Z,8.90
2023-05-06T19:57:36.910Z,8.80
2023-05-06T20:00:10.155Z,8.90
2023-05-06T20:02:41.147Z,8.90
2023-05-06T20:05:10.837Z,8.80
2023-05-06T20:07:39.386Z,8.90
2023-05-06T20:10:10.188Z,9.00
2023-05-06T20:12:38.638Z,8.90
2023-05-06T20:15:08.816Z,8.90
2023-05-06T20:17:37.336Z,8.90
2023-05-06T20:20:09.941Z,9.00
2023-05-06T20:22:38.877Z,8.80
2023-05-06T20:25:12.950Z,8.80
2023-05-06T20:27:41.548Z,8.80
2023-05-06T20:30:12.262Z,8.80
2023-05-06T20:32:41.465Z,8.80
2023-05-06T20:35:12.049Z,8.80
2023-05-06T20:37:41.292Z,8.90
2023-05-06T20:40:11.209Z,8.80
2023-05-06T20:42:39.359Z,8.90
2023-05-06T20:45:09.437Z,8.90
2023-05-06T20:47:37.890Z,8.90
2023-05-06T20:50:07.180Z,8.90
2023-05-06T20:52:37.211Z,8.90
2023-05-06T20:55:07.132Z,8.80
2023-05-06T20:57:35.427Z,8.80
2023-05-06T21:00:03.967Z,8.80
2023-05-06T21:02:35.823Z,8.90
2023-05-06T21:05:09.003Z,8.90
2023-05-06T21:07:38.782Z,8.80
2023-05-06T21:10:07.926Z,8.80
2023-05-06T21:12:36.197Z,8.90
2023-05-06T21:15:05.088Z,8.80
2023-05-06T21:17:33.371Z,8.90
2023-05-06T21:20:03.537Z,8.80
2023-05-06T21:22:32.438Z,8.80
2023-05-06T21:25:02.076Z,8.90
2023-05-06T21:27:30.243Z,8.90
2023-05-06T21:29:58.435Z,8.90
2023-05-06T21:32:27.681Z,8.90
2023-05-06T21:34:55.902Z,8.80
2023-05-06T21:37:24.017Z,8.70
2023-05-06T21:39:52.927Z,8.90
2023-05-06T21:42:22.504Z,8.80
2023-05-06T21:44:50.624Z,8.80
2023-05-06T21:47:18.796Z,8.80
2023-05-06T21:49:46.952Z,8.80
2023-05-06T21:52:15.246Z,8.80
2023-05-06T21:54:46.332Z,8.90
2023-05-06T21:57:14.549Z,9.00
2023-05-06T21:59:44.188Z,8.80
2023-05-06T22:02:12.420Z,8.90
2023-05-06T22:04:40.864Z,8.90
2023-05-06T22:07:09.074Z,8.90
2023-05-06T22:09:37.351Z,8.80
2023-05-06T22:12:08.457Z,8.90
2023-05-06T22:14:40.904Z,8.90
2023-05-06T22:17:12.241Z,9.00
2023-05-06T22:19:41.767Z,8.90
2023-05-06T22:22:10.354Z,8.90
2023-05-06T22:24:38.614Z,8.90
2023-05-06T22:27:06.988Z,9.00
2023-05-06T22:29:36.001Z,8.90
2023-05-06T22:32:04.348Z,8.80
2023-05-06T22:34:33.944Z,8.90
2023-05-06T22:37:02.427Z,8.80
2023-05-06T22:39:30.577Z,8.80
2023-05-06T22:41:58.756Z,8.90
2023-05-06T22:44:26.928Z,8.90
2023-05-06T22:46:56.149Z,8.80
2023-05-06T22:49:28.174Z,8.80
2023-05-06T22:51:58.370Z,8.70
2023-05-06T22:54:26.644Z,8.90
2023-05-06T22:56:54.814Z,8.90
2023-05-06T22:59:23.093Z,8.80
2023-05-06T23:01:51.424Z,8.80
2023-05-06T23:04:19.707Z,8.80
2023-05-06T23:06:47.959Z,8.60
2023-05-06T23:09:17.537Z,8.70
2023-05-06T23:11:47.109Z,8.70
2023-05-06T23:14:17.274Z,8.70
2023-05-06T23:16:45.567Z,8.70
2023-05-06T23:19:13.812Z,8.60
2023-05-06T23:21:43.753Z,8.50
2023-05-06T23:24:12.599Z,8.50
2023-05-06T23:26:42.180Z,8.60
2023-05-06T23:29:10.465Z,8.50
2023-05-06T23:31:38.615Z,8.70
2023-05-06T23:34:06.745Z,8.70
2023-05-06T23:36:35.605Z,8.60
2023-05-06T23:39:04.069Z,8.70
2023-05-06T23:41:32.213Z,8.80
2023-05-06T23:44:01.745Z,8.70
2023-05-06T23:46:30.040Z,8.70
2023-05-06T23:48:58.233Z,8.60
2023-05-06T23:51:26.521Z,8.60
2023-05-06T23:53:54.741Z,8.60
2023-05-06T23:56:22.914Z,8.70
2023-05-06T23:58:51.104Z,8.70
